createdAt,value
2019-05-10T00:01:41.017Z,88.86
2019-05-10T00:04:30.974Z,89.44
2019-05-10T00:07:21.018Z,89.93
2019-05-10T00:09:52.794Z,90.26
2019-05-10T00:12:56.623Z,90.62
2019-05-10T00:15:31.302Z,90.91
2019-05-10T00:18:04.028Z,91.15
2019-05-10T00:20:36.915Z,90.99
2019-05-10T00:23:09.625Z,91.36
2019-05-10T00:25:42.307Z,91.31
2019-05-10T00:28:15.325Z,91.27
2019-05-10T00:30:48.142Z,91.30
2019-05-10T00:33:20.758Z,91.55
2019-05-10T00:35:53.381Z,92.03
2019-05-10T00:38:26.126Z,92.30
2019-05-10T00:41:01.774Z,92.46
2019-05-10T00:43:34.407Z,92.40
2019-05-10T00:46:07.100Z,92.50
2019-05-10T00:48:39.765Z,92.54
2019-05-10T00:51:12.583Z,92.66
2019-05-10T00:53:45.370Z,92.70
2019-05-10T00:56:18.069Z,92.81
2019-05-10T00:58:50.762Z,93.10
2019-05-10T01:01:23.419Z,93.27
2019-05-10T01:03:56.071Z,93.37
2019-05-10T01:06:28.808Z,93.45
2019-05-10T01:09:01.505Z,93.58
2019-05-10T01:11:34.320Z,93.48
2019-05-10T01:14:07.254Z,93.46
2019-05-10T01:16:40.202Z,93.55
2019-05-10T01:19:12.952Z,93.74
2019-05-10T01:21:45.627Z,93.78
2019-05-10T01:24:18.275Z,93.81
2019-05-10T01:26:51.028Z,93.83
2019-05-10T01:29:23.652Z,93.83
2019-05-10T01:31:56.618Z,94.02
2019-05-10T01:34:29.225Z,94.08
2019-05-10T01:37:02.021Z,94.07
2019-05-10T01:39:34.293Z,93.96
2019-05-10T01:42:06.925Z,93.89
2019-05-10T01:44:39.579Z,93.85
2019-05-10T01:47:12.211Z,93.81
2019-05-10T01:49:44.886Z,93.82
2019-05-10T01:52:17.558Z,93.80
2019-05-10T01:54:50.161Z,93.59
2019-05-10T01:57:24.288Z,93.49
2019-05-10T01:59:56.921Z,93.41
2019-05-10T02:02:29.547Z,93.41
2019-05-10T02:05:02.274Z,93.22
2019-05-10T02:07:35.008Z,93.28
2019-05-10T02:10:08.562Z,93.38
2019-05-10T02:12:41.241Z,93.51
2019-05-10T02:15:14.171Z,93.63
2019-05-10T02:17:46.761Z,93.78
2019-05-10T02:20:19.508Z,93.86
2019-05-10T02:22:52.106Z,93.93
2019-05-10T02:25:24.698Z,93.95
2019-05-10T02:27:57.446Z,93.93
2019-05-10T02:30:30.097Z,93.99
2019-05-10T02:33:02.781Z,94.08
2019-05-10T02:35:35.553Z,94.12
2019-05-10T02:38:07.510Z,94.22
2019-05-10T02:40:40.241Z,94.28
2019-05-10T02:43:13.092Z,94.31
2019-05-10T02:45:45.809Z,94.34
2019-05-10T02:48:18.605Z,94.39
2019-05-10T02:50:51.220Z,94.43
2019-05-10T02:53:24.086Z,94.47
2019-05-10T02:55:57.540Z,94.37
2019-05-10T02:58:30.364Z,94.26
2019-05-10T03:01:05.898Z,94.27
2019-05-10T03:03:40.763Z,94.36
2019-05-10T03:06:18.337Z,94.44
2019-05-10T03:08:56.331Z,94.50
2019-05-10T03:11:31.402Z,94.56
2019-05-10T03:14:09.937Z,94.57
2019-05-10T03:16:45.702Z,94.57
2019-05-10T03:19:20.925Z,94.54
2019-05-10T03:22:07.233Z,94.54
2019-05-10T03:24:39.901Z,94.61
2019-05-10T03:27:12.541Z,94.64
2019-05-10T03:29:45.282Z,94.70
2019-05-10T03:32:18.163Z,94.74
2019-05-10T03:34:50.848Z,94.75
2019-05-10T03:37:23.516Z,94.75
2019-05-10T03:39:56.330Z,94.74
2019-05-10T03:42:29.220Z,94.75
2019-05-10T03:45:01.979Z,94.75
2019-05-10T03:47:34.625Z,94.70
2019-05-10T03:50:08.482Z,94.67
2019-05-10T03:52:41.287Z,94.70
2019-05-10T03:55:14.076Z,94.64
2019-05-10T03:57:46.707Z,94.59
2019-05-10T04:00:19.868Z,94.54
2019-05-10T04:02:52.508Z,94.57
2019-05-10T04:05:25.242Z,94.61
2019-05-10T04:07:57.871Z,94.61
2019-05-10T04:10:30.689Z,94.60
2019-05-10T04:13:03.390Z,94.62
2019-05-10T04:15:36.103Z,94.65
2019-05-10T04:18:08.823Z,94.67
2019-05-10T04:20:41.564Z,94.72
2019-05-10T04:23:14.217Z,94.79
2019-05-10T04:25:46.889Z,94.82
2019-05-10T04:28:19.584Z,94.86
2019-05-10T04:30:52.237Z,94.91
2019-05-10T04:33:24.982Z,94.94
2019-05-10T04:35:57.702Z,94.96
2019-05-10T04:38:30.341Z,94.97
2019-05-10T04:41:03.151Z,95.00
2019-05-10T04:43:35.049Z,95.03
2019-05-10T04:46:07.857Z,95.07
2019-05-10T04:48:40.453Z,95.08
2019-05-10T04:51:13.159Z,95.09
2019-05-10T04:53:45.834Z,95.09
2019-05-10T04:56:18.553Z,95.04
2019-05-10T04:58:51.175Z,95.03
2019-05-10T05:01:23.937Z,95.01
2019-05-10T05:03:56.532Z,95.00
2019-05-10T05:06:29.230Z,94.94
2019-05-10T05:09:01.918Z,94.88
2019-05-10T05:11:34.595Z,94.85
2019-05-10T05:14:09.469Z,94.80
2019-05-10T05:16:41.698Z,94.73
2019-05-10T05:19:14.315Z,94.69
2019-05-10T05:21:46.923Z,94.60
2019-05-10T05:24:22.918Z,94.37
2019-05-10T05:26:54.165Z,94.16
2019-05-10T05:29:26.926Z,93.83
2019-05-10T05:32:01.037Z,93.57
2019-05-10T05:34:34.100Z,93.41
2019-05-10T05:37:06.848Z,93.31
2019-05-10T05:39:39.483Z,93.07
2019-05-10T05:42:12.239Z,92.53
2019-05-10T05:44:45.355Z,92.08
2019-05-10T05:47:18.095Z,91.43
2019-05-10T05:49:50.945Z,91.12
2019-05-10T05:52:23.718Z,90.19
2019-05-10T05:54:57.601Z,89.09
2019-05-10T05:57:31.000Z,88.64
2019-05-10T06:00:06.418Z,88.08
2019-05-10T06:02:44.224Z,86.62
2019-05-10T06:05:12.942Z,86.87
2019-05-10T06:07:45.624Z,86.71
2019-05-10T06:10:19.831Z,87.05
2019-05-10T06:12:53.019Z,86.02
2019-05-10T06:15:29.079Z,85.28
2019-05-10T06:18:03.483Z,85.77
2019-05-10T06:20:38.281Z,84.11
2019-05-10T06:23:09.378Z,83.72
2019-05-10T06:25:43.536Z,82.41
2019-05-10T06:28:28.655Z,81.04
2019-05-10T06:30:52.642Z,80.79
2019-05-10T06:33:25.437Z,81.44
2019-05-10T06:35:58.133Z,79.07
2019-05-10T06:38:31.961Z,74.14
2019-05-10T06:41:10.270Z,79.46
2019-05-10T06:43:39.254Z,76.48
2019-05-10T06:46:12.127Z,76.82
2019-05-10T06:48:44.916Z,76.11
2019-05-10T06:51:17.770Z,74.36
2019-05-10T06:53:53.593Z,75.00
2019-05-10T06:56:25.185Z,75.58
2019-05-10T06:59:12.334Z,75.56
2019-05-10T07:01:38.476Z,74.06
2019-05-10T07:04:07.238Z,75.80
2019-05-10T07:06:39.939Z,78.48
2019-05-10T07:09:13.193Z,77.25
2019-05-10T07:11:45.874Z,75.99
2019-05-10T07:14:25.385Z,78.83
2019-05-10T07:16:56.481Z,75.22
2019-05-10T07:19:28.851Z,76.67
2019-05-10T07:22:01.846Z,75.22
2019-05-10T07:24:34.575Z,74.31
2019-05-10T07:27:07.339Z,74.05
2019-05-10T07:29:43.269Z,76.55
2019-05-10T07:32:16.398Z,74.47
2019-05-10T07:34:58.357Z,73.49
2019-05-10T07:37:23.852Z,72.64
2019-05-10T07:39:56.652Z,73.64
2019-05-10T07:42:29.334Z,73.60
2019-05-10T07:45:02.527Z,73.38
2019-05-10T07:47:35.286Z,74.85
2019-05-10T07:50:10.126Z,71.18
2019-05-10T07:52:44.103Z,74.03
2019-05-10T07:55:27.834Z,74.07
2019-05-10T07:57:51.926Z,73.33
2019-05-10T08:00:25.581Z,72.79
2019-05-10T08:03:12.402Z,72.07
2019-05-10T08:05:32.825Z,72.73
2019-05-10T08:08:05.704Z,73.34
2019-05-10T08:10:39.373Z,69.48
2019-05-10T08:13:15.307Z,67.69
2019-05-10T08:15:48.939Z,68.92
2019-05-10T08:18:25.265Z,71.33
2019-05-10T08:21:01.986Z,67.11
2019-05-10T08:23:30.291Z,73.40
2019-05-10T08:26:04.518Z,70.65
2019-05-10T08:28:41.333Z,67.10
2019-05-10T08:31:12.466Z,69.93
2019-05-10T08:33:57.168Z,69.92
2019-05-10T08:36:21.789Z,70.71
2019-05-10T08:39:05.081Z,69.50
2019-05-10T08:41:28.487Z,71.33
2019-05-10T08:44:04.648Z,70.14
2019-05-10T08:46:41.194Z,71.36
2019-05-10T08:49:10.252Z,71.74
2019-05-10T08:51:47.738Z,70.15
2019-05-10T08:54:17.459Z,71.34
2019-05-10T08:56:54.929Z,72.02
2019-05-10T08:59:26.809Z,72.65
2019-05-10T09:01:59.339Z,71.93
2019-05-10T09:04:42.261Z,69.97
2019-05-10T09:07:07.011Z,67.38
2019-05-10T09:09:45.706Z,70.93
2019-05-10T09:12:14.109Z,68.55
2019-05-10T09:14:48.707Z,69.32
2019-05-10T09:17:23.580Z,71.68
2019-05-10T09:19:55.710Z,73.22
2019-05-10T09:22:34.103Z,72.60
2019-05-10T09:25:02.979Z,75.19
2019-05-10T09:27:35.728Z,76.92
2019-05-10T09:30:16.166Z,78.50
2019-05-10T09:32:44.478Z,78.31
2019-05-10T09:35:17.211Z,79.41
2019-05-10T09:37:54.109Z,79.69
2019-05-10T09:40:26.035Z,78.61
2019-05-10T09:42:59.400Z,77.62
2019-05-10T09:45:33.447Z,74.33
2019-05-10T09:48:06.186Z,75.07
2019-05-10T09:50:44.853Z,77.01
2019-05-10T09:53:21.700Z,75.99
2019-05-10T09:55:55.260Z,74.97
2019-05-10T09:58:22.638Z,71.61
2019-05-10T10:01:12.753Z,69.38
2019-05-10T10:03:30.330Z,65.21
2019-05-10T10:06:07.628Z,66.44
2019-05-10T10:08:43.401Z,59.41
2019-05-10T10:11:18.083Z,54.05
2019-05-10T10:13:58.596Z,53.35
2019-05-10T10:16:24.056Z,49.16
2019-05-10T10:18:56.747Z,58.73
2019-05-10T10:21:34.893Z,61.56
2019-05-10T10:24:13.769Z,60.80
2019-05-10T10:26:38.403Z,60.89
2019-05-10T10:29:11.083Z,68.44
2019-05-10T10:31:51.470Z,66.31
2019-05-10T10:34:18.250Z,65.38
2019-05-10T10:36:51.114Z,64.71
2019-05-10T10:39:24.443Z,68.46
2019-05-10T10:41:57.295Z,69.40
2019-05-10T10:44:30.017Z,71.18
2019-05-10T10:47:02.800Z,69.50
2019-05-10T10:49:37.650Z,68.03
2019-05-10T10:52:11.369Z,67.92
2019-05-10T10:54:44.560Z,68.95
2019-05-10T10:57:18.022Z,62.39
2019-05-10T10:59:50.860Z,62.82
2019-05-10T11:02:32.705Z,57.57
2019-05-10T11:04:58.253Z,58.61
2019-05-10T11:07:35.293Z,64.04
2019-05-10T11:10:15.437Z,66.52
2019-05-10T11:12:41.378Z,64.13
2019-05-10T11:15:16.396Z,58.11
2019-05-10T11:17:50.580Z,55.81
2019-05-10T11:20:23.149Z,54.51
2019-05-10T11:22:55.894Z,54.54
2019-05-10T11:25:30.718Z,49.75
2019-05-10T11:28:03.524Z,57.02
2019-05-10T11:30:36.395Z,55.70
2019-05-10T11:33:23.822Z,50.72
2019-05-10T11:35:44.536Z,48.76
2019-05-10T11:38:17.269Z,56.64
2019-05-10T11:40:50.019Z,51.42
2019-05-10T11:43:26.937Z,49.61
2019-05-10T11:45:57.338Z,52.49
2019-05-10T11:48:36.836Z,56.01
2019-05-10T11:51:05.858Z,53.28
2019-05-10T11:53:41.461Z,59.58
2019-05-10T11:58:55.049Z,54.54
2019-05-10T12:01:22.596Z,56.59
2019-05-10T12:03:55.361Z,61.44
2019-05-10T12:06:28.340Z,66.98
2019-05-10T12:09:04.590Z,65.37
2019-05-10T12:11:43.064Z,69.32
2019-05-10T12:14:13.859Z,69.32
2019-05-10T12:16:44.864Z,71.35
2019-05-10T12:19:21.129Z,75.58
2019-05-10T12:24:46.284Z,79.86
2019-05-10T12:26:04.743Z,57.05
2019-05-10T12:26:20.604Z,75.70
2019-05-10T12:27:18.460Z,77.94
2019-05-10T12:29:35.700Z,80.62
2019-05-10T12:32:10.380Z,80.30
2019-05-10T12:34:45.950Z,79.88
2019-05-10T12:37:17.454Z,79.64
2019-05-10T12:39:52.869Z,75.24
2019-05-10T12:42:24.724Z,74.86
2019-05-10T12:44:57.415Z,72.11
2019-05-10T12:47:30.603Z,69.99
2019-05-10T12:50:04.767Z,70.87
2019-05-10T12:52:37.721Z,68.49
2019-05-10T12:55:11.210Z,69.20
2019-05-10T12:57:43.933Z,67.27
2019-05-10T13:00:17.649Z,67.27
2019-05-10T13:02:51.919Z,62.80
2019-05-10T13:05:31.730Z,64.86
2019-05-10T13:07:59.694Z,65.32
2019-05-10T13:10:37.215Z,57.29
2019-05-10T13:13:06.842Z,55.62
2019-05-10T13:15:40.107Z,57.14
2019-05-10T13:18:13.131Z,59.30
2019-05-10T13:20:45.923Z,56.10
2019-05-10T13:23:18.781Z,59.33
2019-05-10T13:25:51.624Z,56.97
2019-05-10T13:28:24.407Z,57.34
2019-05-10T13:30:59.894Z,58.76
2019-05-10T13:33:40.676Z,58.86
2019-05-10T13:36:06.290Z,56.07
2019-05-10T13:38:43.940Z,58.18
2019-05-10T13:41:17.745Z,58.25
2019-05-10T13:43:48.149Z,53.31
2019-05-10T13:46:20.942Z,52.05
2019-05-10T13:48:53.643Z,53.65
2019-05-10T13:51:26.438Z,58.18
2019-05-10T13:54:00.857Z,55.09
2019-05-10T13:56:33.869Z,53.54
2019-05-10T13:59:15.339Z,58.02
2019-05-10T14:01:44.233Z,54.95
2019-05-10T14:04:15.629Z,57.90
2019-05-10T14:06:48.362Z,58.22
2019-05-10T14:09:21.270Z,56.75
2019-05-10T14:11:54.247Z,53.25
2019-05-10T14:14:27.028Z,54.30
2019-05-10T14:16:59.917Z,47.42
2019-05-10T14:19:35.842Z,50.74
2019-05-10T14:22:06.691Z,50.53
2019-05-10T14:24:39.417Z,47.63
2019-05-10T14:27:12.228Z,49.32
2019-05-10T14:29:44.973Z,49.67
2019-05-10T14:32:17.728Z,47.52
2019-05-10T14:34:50.580Z,47.26
2019-05-10T14:37:23.494Z,52.25
2019-05-10T14:39:56.326Z,55.71
2019-05-10T14:42:31.784Z,54.41
2019-05-10T14:45:03.863Z,53.56
2019-05-10T14:47:46.962Z,52.56
2019-05-10T14:50:12.246Z,50.10
2019-05-10T14:52:44.981Z,49.68
2019-05-10T14:55:17.703Z,55.55
2019-05-10T14:57:50.567Z,54.11
2019-05-10T15:00:23.633Z,54.24
2019-05-10T15:03:01.540Z,56.39
2019-05-10T15:05:30.842Z,56.73
2019-05-10T15:08:06.513Z,58.05
2019-05-10T15:10:41.810Z,60.19
2019-05-10T15:13:19.503Z,57.80
2019-05-10T15:15:49.219Z,58.91
2019-05-10T15:18:21.894Z,56.72
2019-05-10T15:20:54.698Z,56.37
2019-05-10T15:23:27.610Z,53.87
2019-05-10T15:26:10.487Z,54.08
2019-05-10T15:28:40.669Z,58.77
2019-05-10T15:31:09.276Z,59.67
2019-05-10T15:33:42.145Z,61.44
2019-05-10T15:36:14.810Z,60.55
2019-05-10T15:38:51.678Z,58.35
2019-05-10T15:41:22.404Z,60.02
2019-05-10T15:43:56.398Z,61.40
2019-05-10T15:46:39.365Z,62.85
2019-05-10T15:49:03.581Z,61.67
2019-05-10T15:51:36.863Z,62.33
2019-05-10T15:54:09.678Z,64.54
2019-05-10T15:56:44.206Z,62.08
2019-05-10T15:59:23.779Z,62.12
2019-05-10T16:01:51.780Z,60.24
2019-05-10T16:04:24.717Z,58.43
2019-05-10T16:07:09.322Z,55.26
2019-05-10T16:09:42.827Z,53.29
2019-05-10T16:12:16.493Z,51.31
2019-05-10T16:14:49.240Z,51.49
2019-05-10T16:17:23.977Z,56.47
2019-05-10T16:19:59.692Z,53.69
2019-05-10T16:22:32.066Z,51.96
2019-05-10T16:25:04.997Z,51.14
2019-05-10T16:27:41.721Z,52.49
2019-05-10T16:30:17.703Z,57.52
2019-05-10T16:32:48.221Z,54.01
2019-05-10T16:35:22.217Z,55.23
2019-05-10T16:37:54.955Z,53.52
2019-05-10T16:40:27.684Z,55.51
2019-05-10T16:43:01.090Z,55.00
2019-05-10T16:45:33.839Z,57.73
2019-05-10T16:48:09.981Z,57.09
2019-05-10T16:50:42.702Z,57.09
2019-05-10T16:53:15.492Z,57.40
2019-05-10T16:55:50.163Z,58.26
2019-05-10T16:58:23.277Z,62.49
2019-05-10T17:00:56.047Z,61.62
2019-05-10T17:03:28.850Z,57.57
2019-05-10T17:06:04.072Z,60.53
2019-05-10T17:08:38.657Z,60.63
2019-05-10T17:11:11.947Z,60.59
2019-05-10T17:14:01.381Z,62.41
2019-05-10T17:16:34.208Z,61.96
2019-05-10T17:19:07.050Z,60.05
2019-05-10T17:21:40.282Z,62.24
2019-05-10T17:24:13.815Z,64.96
2019-05-10T17:26:46.648Z,68.35
2019-05-10T17:29:19.380Z,66.56
2019-05-10T17:31:52.089Z,63.77
2019-05-10T17:34:29.519Z,68.45
2019-05-10T17:36:59.843Z,68.00
2019-05-10T17:39:34.230Z,68.48
2019-05-10T17:42:07.152Z,68.18
2019-05-10T17:44:43.586Z,67.96
2019-05-10T17:47:14.968Z,69.23
2019-05-10T17:49:47.707Z,68.67
2019-05-10T17:52:20.442Z,69.93
2019-05-10T17:54:53.501Z,70.91
2019-05-10T17:57:26.216Z,70.42
2019-05-10T17:59:59.056Z,70.95
2019-05-10T18:02:31.881Z,71.46
2019-05-10T18:05:07.993Z,72.65
2019-05-10T18:07:39.386Z,75.33
2019-05-10T18:10:12.782Z,77.04
2019-05-10T18:12:45.485Z,77.86
2019-05-10T18:15:18.276Z,78.69
2019-05-10T18:17:51.106Z,78.92
2019-05-10T18:20:23.964Z,79.46
2019-05-10T18:22:56.663Z,78.58
2019-05-10T18:25:29.372Z,81.46
2019-05-10T18:28:02.157Z,82.42
2019-05-10T18:30:34.890Z,82.36
2019-05-10T18:33:12.488Z,82.93
2019-05-10T18:35:42.177Z,83.78
2019-05-10T18:38:15.026Z,84.61
2019-05-10T18:40:47.769Z,85.62
2019-05-10T18:43:20.569Z,86.47
2019-05-10T18:45:53.343Z,86.33
2019-05-10T18:48:26.126Z,87.25
2019-05-10T18:50:58.838Z,87.63
2019-05-10T18:53:31.616Z,88.45
2019-05-10T18:56:04.484Z,88.85
2019-05-10T18:58:36.759Z,88.85
2019-05-10T19:01:09.521Z,89.36
2019-05-10T19:03:42.387Z,89.46
2019-05-10T19:06:15.132Z,89.05
2019-05-10T19:08:47.845Z,89.25
2019-05-10T19:11:20.648Z,89.45
2019-05-10T19:13:54.173Z,89.90
2019-05-10T19:16:32.194Z,90.56
2019-05-10T19:19:03.643Z,90.90
2019-05-10T19:21:37.885Z,90.98
2019-05-10T19:24:11.059Z,91.22
2019-05-10T19:26:43.827Z,91.24
2019-05-10T19:29:16.626Z,91.40
2019-05-10T19:31:51.513Z,91.54
2019-05-10T19:34:24.308Z,91.60
2019-05-10T19:36:57.102Z,91.83
2019-05-10T19:39:29.896Z,91.90
2019-05-10T19:42:04.005Z,91.41
2019-05-10T19:44:40.564Z,91.45
2019-05-10T19:47:17.690Z,91.01
2019-05-10T19:49:51.878Z,90.89
2019-05-10T19:52:26.095Z,90.27
2019-05-10T19:54:54.948Z,90.84
2019-05-10T19:57:27.790Z,91.09
2019-05-10T20:00:00.521Z,91.03
2019-05-10T20:02:33.278Z,90.93
2019-05-10T20:05:06.284Z,90.39
2019-05-10T20:07:46.056Z,86.66
2019-05-10T20:10:14.161Z,88.54
2019-05-10T20:12:46.905Z,89.42
2019-05-10T20:15:19.892Z,89.83
2019-05-10T20:17:52.761Z,90.32
2019-05-10T20:20:25.503Z,90.51
2019-05-10T20:22:58.257Z,88.65
2019-05-10T20:25:31.003Z,82.32
2019-05-10T20:28:06.424Z,85.10
2019-05-10T20:30:38.400Z,85.45
2019-05-10T20:33:11.314Z,83.73
2019-05-10T20:35:44.441Z,84.43
2019-05-10T20:38:17.297Z,83.25
2019-05-10T20:40:50.049Z,83.89
2019-05-10T20:43:22.935Z,84.70
2019-05-10T20:45:55.649Z,84.94
2019-05-10T20:48:29.276Z,85.46
2019-05-10T20:51:02.065Z,86.19
2019-05-10T20:53:34.770Z,86.17
2019-05-10T20:56:07.655Z,85.32
2019-05-10T20:58:40.765Z,83.97
2019-05-10T21:01:14.027Z,85.59
2019-05-10T21:03:46.834Z,86.60
2019-05-10T21:06:19.543Z,86.41
2019-05-10T21:08:52.337Z,87.47
2019-05-10T21:11:25.058Z,87.92
2019-05-10T21:13:58.098Z,87.96
2019-05-10T21:16:31.022Z,88.70
2019-05-10T21:19:05.173Z,88.86
2019-05-10T21:21:37.901Z,89.52
2019-05-10T21:24:10.859Z,90.02
2019-05-10T21:26:43.547Z,89.70
2019-05-10T21:29:17.349Z,89.44
2019-05-10T21:31:50.082Z,89.72
2019-05-10T21:34:22.854Z,90.35
2019-05-10T21:36:55.548Z,90.41
2019-05-10T21:39:28.373Z,90.44
2019-05-10T21:42:01.313Z,90.62
2019-05-10T21:44:34.121Z,91.00
2019-05-10T21:47:06.804Z,91.36
2019-05-10T21:49:39.607Z,91.29
2019-05-10T21:52:12.424Z,91.28
2019-05-10T21:54:45.215Z,91.20
2019-05-10T21:57:17.971Z,91.22
2019-05-10T21:59:51.599Z,91.43
2019-05-10T22:02:24.312Z,91.60
2019-05-10T22:04:57.153Z,91.22
2019-05-10T22:07:29.997Z,91.36
2019-05-10T22:10:02.718Z,90.47
2019-05-10T22:12:35.525Z,90.09
2019-05-10T22:15:10.447Z,90.16
2019-05-10T22:17:43.236Z,89.96
2019-05-10T22:20:16.345Z,89.96
2019-05-10T22:22:49.005Z,90.35
2019-05-10T22:25:21.832Z,90.76
2019-05-10T22:27:57.526Z,91.05
2019-05-10T22:30:30.316Z,91.20
2019-05-10T22:33:03.038Z,90.75
2019-05-10T22:35:35.761Z,90.94
2019-05-10T22:38:08.710Z,91.20
2019-05-10T22:40:41.481Z,91.52
2019-05-10T22:43:14.242Z,91.53
2019-05-10T22:45:47.149Z,91.58
2019-05-10T22:48:19.896Z,91.65
2019-05-10T22:50:52.649Z,91.39
2019-05-10T22:53:25.419Z,91.38
2019-05-10T22:55:58.229Z,91.31
2019-05-10T22:58:31.156Z,91.44
2019-05-10T23:01:03.157Z,91.38
2019-05-10T23:03:35.939Z,91.11
2019-05-10T23:06:08.941Z,90.69
2019-05-10T23:08:41.792Z,89.05
2019-05-10T23:11:14.622Z,88.54
2019-05-10T23:13:47.323Z,89.25
2019-05-10T23:16:20.119Z,89.43
2019-05-10T23:18:52.932Z,90.06
2019-05-10T23:21:28.444Z,89.73
2019-05-10T23:24:06.837Z,89.09
2019-05-10T23:26:39.614Z,88.72
2019-05-10T23:29:12.356Z,89.29
2019-05-10T23:31:45.018Z,89.02
2019-05-10T23:34:17.794Z,89.55
2019-05-10T23:36:50.581Z,89.91
2019-05-10T23:39:38.399Z,88.51
2019-05-10T23:41:57.896Z,87.94
2019-05-10T23:44:30.792Z,87.01
2019-05-10T23:47:03.466Z,86.52
2019-05-10T23:49:36.229Z,86.73
2019-05-10T23:52:09.095Z,87.15
2019-05-10T23:54:41.847Z,87.33
2019-05-10T23:57:14.676Z,86.24
2019-05-10T23:59:47.457Z,85.94
